createdAt,value
2022-11-19T00:04:50.268Z,12.43
2022-11-19T00:09:52.503Z,12.52
2022-11-19T00:14:54.739Z,12.59
2022-11-19T00:19:56.871Z,12.41
2022-11-19T00:24:58.999Z,12.52
2022-11-19T00:30:01.280Z,12.58
2022-11-19T00:35:05.097Z,12.32
2022-11-19T00:40:09.103Z,12.54
2022-11-19T00:45:13.818Z,12.54
2022-11-19T00:50:16.184Z,12.50
2022-11-19T00:55:18.288Z,12.45
2022-11-19T01:00:20.515Z,12.38
2022-11-19T01:05:22.720Z,12.43
2022-11-19T01:10:25.003Z,12.31
2022-11-19T01:15:27.336Z,12.39
2022-11-19T01:20:29.660Z,12.16
2022-11-19T01:25:31.728Z,11.88
2022-11-19T01:30:34.224Z,11.91
2022-11-19T01:35:37.011Z,11.99
2022-11-19T01:40:44.358Z,11.79
2022-11-19T01:45:49.872Z,11.79
2022-11-19T01:50:55.313Z,12.04
2022-11-19T01:56:04.242Z,11.85
2022-11-19T02:01:09.211Z,11.55
2022-11-19T02:06:12.958Z,11.90
2022-11-19T02:11:22.764Z,11.90
2022-11-19T02:16:44.789Z,11.61
2022-11-19T02:22:08.434Z,11.85
2022-11-19T02:27:39.306Z,11.88
2022-11-19T02:33:01.487Z,11.88
2022-11-19T02:38:15.856Z,12.05
2022-11-19T02:43:40.117Z,12.01
2022-11-19T02:48:51.410Z,12.06
2022-11-19T02:53:55.193Z,12.14
2022-11-19T02:59:16.560Z,11.95
2022-11-19T03:04:30.996Z,11.72
2022-11-19T03:09:38.202Z,12.03
2022-11-19T03:15:15.802Z,11.94
2022-11-19T03:20:27.371Z,11.91
2022-11-19T03:25:36.906Z,11.72
2022-11-19T03:30:44.202Z,11.66
2022-11-19T03:35:52.226Z,11.56
2022-11-19T03:40:56.545Z,11.54
2022-11-19T03:46:03.846Z,11.20
2022-11-19T03:51:16.297Z,10.92
2022-11-19T03:56:22.977Z,10.84
2022-11-19T04:01:27.801Z,10.88
2022-11-19T04:06:30.185Z,11.16
2022-11-19T04:11:35.028Z,11.19
2022-11-19T04:16:41.144Z,11.08
2022-11-19T04:21:43.594Z,11.19
2022-11-19T04:26:45.971Z,11.11
2022-11-19T04:31:50.822Z,10.83
2022-11-19T04:36:53.110Z,10.74
2022-11-19T04:41:56.193Z,10.47
2022-11-19T04:46:58.338Z,10.11
2022-11-19T04:52:01.917Z,10.27
2022-11-19T04:57:04.131Z,10.29
2022-11-19T05:02:06.343Z,10.39
2022-11-19T05:07:08.873Z,10.64
2022-11-19T05:12:11.275Z,10.72
2022-11-19T05:17:15.646Z,10.75
2022-11-19T05:22:18.888Z,10.83
2022-11-19T05:27:21.114Z,10.90
2022-11-19T05:32:28.441Z,10.64
2022-11-19T05:37:35.612Z,10.41
2022-11-19T05:42:37.965Z,10.41
2022-11-19T05:47:46.001Z,10.88
2022-11-19T05:52:51.351Z,10.84
2022-11-19T05:57:53.565Z,10.92
2022-11-19T06:02:55.885Z,11.30
2022-11-19T06:08:01.021Z,11.19
2022-11-19T06:13:03.363Z,11.07
2022-11-19T06:18:07.087Z,11.34
2022-11-19T06:23:11.233Z,11.45
2022-11-19T06:28:14.024Z,11.39
2022-11-19T06:33:16.116Z,11.45
2022-11-19T06:38:18.849Z,11.28
2022-11-19T06:43:21.232Z,11.33
2022-11-19T06:48:23.843Z,11.63
2022-11-19T06:53:26.155Z,11.77
2022-11-19T06:58:29.427Z,11.78
2022-11-19T07:03:31.659Z,11.96
2022-11-19T07:08:35.892Z,12.18
2022-11-19T07:13:56.715Z,12.02
2022-11-19T07:19:00.591Z,12.06
2022-11-19T07:24:04.874Z,12.26
2022-11-19T07:29:08.408Z,12.40
2022-11-19T07:34:11.204Z,12.54
2022-11-19T07:39:13.620Z,12.48
2022-11-19T07:44:41.752Z,12.55
2022-11-19T07:49:44.064Z,12.61
2022-11-19T07:54:46.342Z,12.58
2022-11-19T07:59:48.602Z,12.66
2022-11-19T08:04:50.870Z,12.77
2022-11-19T08:09:53.105Z,12.92
2022-11-19T08:14:56.628Z,13.34
2022-11-19T08:19:59.307Z,13.10
2022-11-19T08:25:02.167Z,13.17
2022-11-19T08:30:04.880Z,13.49
2022-11-19T08:35:07.917Z,13.86
2022-11-19T08:40:10.559Z,13.69
2022-11-19T08:45:16.746Z,13.89
2022-11-19T08:50:22.856Z,14.04
2022-11-19T08:55:26.684Z,14.20
2022-11-19T09:00:30.139Z,14.47
2022-11-19T09:05:32.517Z,14.87
2022-11-19T09:10:38.151Z,15.24
2022-11-19T09:15:40.490Z,15.73
2022-11-19T09:20:43.171Z,15.87
2022-11-19T09:25:45.492Z,16.11
2022-11-19T09:31:05.304Z,16.16
2022-11-19T09:36:08.624Z,16.79
2022-11-19T09:41:53.544Z,16.97
2022-11-19T09:47:13.319Z,17.13
2022-11-19T09:52:20.500Z,16.89
2022-11-19T09:57:36.908Z,17.89
2022-11-19T10:02:39.361Z,18.02
2022-11-19T10:08:00.502Z,20.06
2022-11-19T10:13:12.922Z,19.63
2022-11-19T10:18:49.092Z,20.00
2022-11-19T10:24:01.111Z,20.96
2022-11-19T10:29:21.066Z,22.01
2022-11-19T10:34:38.331Z,21.95
2022-11-19T10:39:44.191Z,21.16
2022-11-19T10:44:55.435Z,20.40
2022-11-19T10:49:57.840Z,19.77
2022-11-19T10:55:26.078Z,19.07
2022-11-19T11:00:28.611Z,18.81
2022-11-19T11:05:32.159Z,17.63
2022-11-19T11:10:39.006Z,17.78
2022-11-19T11:15:48.488Z,17.96
2022-11-19T11:20:52.337Z,17.40
2022-11-19T11:26:09.102Z,17.70
2022-11-19T11:31:11.828Z,17.72
2022-11-19T11:36:21.199Z,18.08
2022-11-19T11:42:04.857Z,18.02
2022-11-19T11:47:18.269Z,17.51
2022-11-19T11:52:34.016Z,17.56
2022-11-19T11:57:50.169Z,18.44
2022-11-19T12:03:10.684Z,18.44
2022-11-19T12:08:38.715Z,18.43
2022-11-19T12:13:50.966Z,18.52
2022-11-19T12:19:12.961Z,17.85
2022-11-19T12:24:23.316Z,17.91
2022-11-19T12:29:41.575Z,17.51
2022-11-19T12:34:53.310Z,17.48
2022-11-19T12:40:15.779Z,17.29
2022-11-19T12:45:43.090Z,17.51
2022-11-19T12:50:48.365Z,17.62
2022-11-19T12:56:21.208Z,17.53
2022-11-19T13:01:32.501Z,17.46
2022-11-19T13:06:56.353Z,17.46
2022-11-19T13:12:15.621Z,17.60
2022-11-19T13:17:23.687Z,17.90
2022-11-19T13:22:36.502Z,17.29
2022-11-19T13:27:39.549Z,17.28
2022-11-19T13:32:59.575Z,17.08
2022-11-19T13:38:30.444Z,17.07
2022-11-19T13:43:51.289Z,16.89
2022-11-19T13:49:08.268Z,16.71
2022-11-19T13:54:23.175Z,16.38
2022-11-19T13:59:48.117Z,16.22
2022-11-19T14:05:07.434Z,16.25
2022-11-19T14:10:15.710Z,16.43
2022-11-19T14:16:14.533Z,16.33
2022-11-19T14:21:44.231Z,16.23
2022-11-19T14:26:52.311Z,16.31
2022-11-19T14:32:00.825Z,16.15
2022-11-19T14:37:13.617Z,16.03
2022-11-19T14:42:19.262Z,15.70
2022-11-19T14:47:27.448Z,15.52
2022-11-19T14:52:40.070Z,15.04
2022-11-19T14:57:44.541Z,14.89
2022-11-19T15:02:51.403Z,14.81
2022-11-19T15:08:19.152Z,14.69
2022-11-19T15:13:27.461Z,14.47
2022-11-19T15:18:44.965Z,14.40
2022-11-19T15:24:06.755Z,14.39
2022-11-19T15:29:36.724Z,14.22
2022-11-19T15:35:11.018Z,14.30
2022-11-19T15:40:22.718Z,14.13
2022-11-19T15:45:27.497Z,14.06
2022-11-19T15:50:29.998Z,14.08
2022-11-19T15:55:32.517Z,13.91
2022-11-19T16:00:48.408Z,13.68
2022-11-19T16:06:24.557Z,13.70
2022-11-19T16:11:48.812Z,13.68
2022-11-19T16:17:10.983Z,13.28
2022-11-19T16:22:13.471Z,13.30
2022-11-19T16:27:24.814Z,13.53
2022-11-19T16:32:28.139Z,13.75
2022-11-19T16:37:30.294Z,13.74
2022-11-19T16:42:32.938Z,13.59
2022-11-19T16:47:50.158Z,12.88
2022-11-19T16:52:52.411Z,12.85
2022-11-19T16:57:58.369Z,12.99
2022-11-19T17:03:15.906Z,13.26
2022-11-19T17:08:30.632Z,13.09
2022-11-19T17:13:32.848Z,12.92
2022-11-19T17:18:35.563Z,12.53
2022-11-19T17:23:48.528Z,12.36
2022-11-19T17:28:55.172Z,12.35
2022-11-19T17:34:09.837Z,12.01
2022-11-19T17:39:13.255Z,11.78
2022-11-19T17:44:40.771Z,11.96
2022-11-19T17:49:45.448Z,11.99
2022-11-19T17:54:47.917Z,12.12
2022-11-19T17:59:50.162Z,11.70
2022-11-19T18:04:52.520Z,11.37
2022-11-19T18:09:54.587Z,11.34
2022-11-19T18:15:00.847Z,11.39
2022-11-19T18:20:04.965Z,10.88
2022-11-19T18:25:19.729Z,11.05
2022-11-19T18:30:22.029Z,11.07
2022-11-19T18:35:25.898Z,11.15
2022-11-19T18:40:28.193Z,10.98
2022-11-19T18:45:31.061Z,11.19
2022-11-19T18:50:33.384Z,11.02
2022-11-19T18:55:35.478Z,11.06
2022-11-19T19:00:37.633Z,11.14
2022-11-19T19:05:40.482Z,11.06
2022-11-19T19:10:42.601Z,11.16
2022-11-19T19:15:44.688Z,11.01
2022-11-19T19:20:47.033Z,10.89
2022-11-19T19:25:49.275Z,10.87
2022-11-19T19:30:57.776Z,11.07
2022-11-19T19:36:02.082Z,11.11
2022-11-19T19:41:05.744Z,11.15
2022-11-19T19:46:13.367Z,10.96
2022-11-19T19:51:17.446Z,10.84
2022-11-19T19:56:25.990Z,10.88
2022-11-19T20:01:31.197Z,10.86
2022-11-19T20:06:34.269Z,10.47
2022-11-19T20:11:37.266Z,10.56
2022-11-19T20:16:41.410Z,10.44
2022-11-19T20:21:43.755Z,10.57
2022-11-19T20:26:45.979Z,10.57
2022-11-19T20:31:48.930Z,10.51
2022-11-19T20:36:51.172Z,10.65
2022-11-19T20:42:12.203Z,10.54
2022-11-19T20:47:14.491Z,10.51
2022-11-19T20:52:18.081Z,10.62
2022-11-19T20:57:20.121Z,10.29
2022-11-19T21:02:22.625Z,10.43
2022-11-19T21:07:24.926Z,10.29
2022-11-19T21:12:27.088Z,10.25
2022-11-19T21:17:29.310Z,10.15
2022-11-19T21:22:31.674Z,10.17
2022-11-19T21:27:34.022Z,10.12
2022-11-19T21:32:36.409Z,10.16
2022-11-19T21:37:38.522Z,10.08
2022-11-19T21:42:40.595Z,10.19
2022-11-19T21:47:42.776Z,9.96
2022-11-19T21:52:45.071Z,9.98
2022-11-19T21:57:47.389Z,9.91
2022-11-19T22:02:49.567Z,11.09
2022-11-19T22:07:51.714Z,12.19
2022-11-19T22:12:54.004Z,12.42
2022-11-19T22:17:56.410Z,12.76
2022-11-19T22:22:58.744Z,13.02
2022-11-19T22:28:01.021Z,13.20
2022-11-19T22:33:03.330Z,13.40
2022-11-19T22:38:05.452Z,13.91
2022-11-19T22:43:07.584Z,14.52
2022-11-19T22:48:09.614Z,14.77
2022-11-19T22:53:11.949Z,14.64
2022-11-19T22:58:14.173Z,14.72
2022-11-19T23:03:16.721Z,15.37
2022-11-19T23:08:19.623Z,15.80
2022-11-19T23:13:33.768Z,16.07
2022-11-19T23:18:40.882Z,16.65
2022-11-19T23:24:07.260Z,16.80
2022-11-19T23:29:09.703Z,16.87
2022-11-19T23:34:12.078Z,16.93
2022-11-19T23:39:18.287Z,16.65
2022-11-19T23:44:20.589Z,17.06
2022-11-19T23:49:23.117Z,16.94
2022-11-19T23:54:25.448Z,17.21
2022-11-19T23:59:27.758Z,17.01
